Ana Sayfa
METAR-TAF:

METAR-TAF

Havaalanları :

Huntington, Batı Virginia, Amerika Birleşik Devletleri

Enlem: 38-21-54N, Boylam: 082-33-18W, yükseklik: 252 m

Güncel hava durumu gözlemi

Rapor saat 22:51 UTC de 1 saat ve 20 dakika önce yapıldı.
Rüzgar kuzeydan 5 kt
Sıcaklık 27°C
Nem 54%
Basınç 1017 hPa
Görüş mesafesi: 16.1 km
Açık gökyüzü

METAR: KHTS 112251Z 01005KT 10SM CLR 27/17 A3002 RMK AO2 SLP159 T02720167 $

Saat: 20:11 (00:11 UTC)

Tahmin

Rapor saat 23:48 UTC de 23 dakika önce yapıldı.
Ayın 12'si saat 00 UTC'den ayın 12'si saat 24 UTC'ye kadar geçerli Tahmin
Rüzgar değişken yönden 4 kt
Görüş mesafesi: 10 km
12000 ft yükseklikte parçalı bulutlu
Ayın 12'si saat 1800 UTC'den
Rüzgar kuzeydan 7 kt
Görüş mesafesi: 10 km
Açık gökyüzü

TAF: KHTS 112348Z 1200/1224 VRB04KT P6SM SCT120 FM121800 01007KT P6SM SKC

4.000'den fazla havaalanı için hava durumu gözlemleri ve tahminleri (METAR ve TAF raporları).

Kullanılabilir istasyonlar harita üzerinde sarı ve kırmızı noktalarla gösterilir.

İstasyonun adını görmek için fareyi noktanın üzerinde gezdirin.

Sonrasında hava gözlem ve tahminlerini görmek için tıklayın.

Haritayı değiştirmek için: yaklaştırmak için siyah artı işaretli yeşil düğmeye ve uzaklaştırmak için de eksi işaretli düğmeye hızla tıklayın; bitişik haritalar için yeşil okları kullanın.


METAR-TAF: